createdAt,value
2023-01-11T00:00:08.879Z,0.20
2023-01-11T00:02:09.915Z,0.19
2023-01-11T00:04:08.144Z,0.24
2023-01-11T00:06:08.159Z,0.23
2023-01-11T00:08:06.877Z,0.22
2023-01-11T00:10:05.691Z,0.21
2023-01-11T00:12:04.212Z,0.21
2023-01-11T00:14:04.020Z,0.21
2023-01-11T00:16:07.120Z,0.19
2023-01-11T00:18:05.513Z,0.15
2023-01-11T00:20:05.817Z,0.15
2023-01-11T00:22:04.997Z,0.11
2023-01-11T00:24:03.366Z,0.10
2023-01-11T00:26:03.964Z,0.15
2023-01-11T00:28:02.220Z,0.16
2023-01-11T00:30:01.803Z,0.16
2023-01-11T00:32:00.006Z,0.14
2023-01-11T00:33:59.038Z,0.13
2023-01-11T00:35:57.322Z,0.12
2023-01-11T00:37:55.575Z,0.09
2023-01-11T00:39:53.811Z,0.06
2023-01-11T00:42:09.923Z,0.02
2023-01-11T00:44:28.840Z,-0.01
2023-01-11T00:46:45.696Z,0.00
2023-01-11T00:48:44.116Z,0.02
2023-01-11T00:50:42.721Z,-0.01
2023-01-11T00:52:41.021Z,-0.01
2023-01-11T00:54:40.566Z,-0.03
2023-01-11T00:56:39.089Z,-0.05
2023-01-11T00:58:37.295Z,-0.07
2023-01-11T01:00:35.811Z,-0.08
2023-01-11T01:02:35.702Z,-0.12
2023-01-11T01:04:34.107Z,-0.12
2023-01-11T01:06:32.766Z,-0.07
2023-01-11T01:08:31.144Z,-0.08
2023-01-11T01:10:29.540Z,-0.10
2023-01-11T01:12:45.203Z,-0.07
2023-01-11T01:14:45.587Z,-0.05
2023-01-11T01:16:46.443Z,-0.05
2023-01-11T01:18:47.843Z,-0.06
2023-01-11T01:20:46.207Z,-0.07
2023-01-11T01:22:44.371Z,-0.11
2023-01-11T01:24:42.655Z,-0.12
2023-01-11T01:26:40.865Z,-0.08
2023-01-11T01:28:39.126Z,-0.10
2023-01-11T01:30:37.306Z,-0.11
2023-01-11T01:32:35.880Z,-0.14
2023-01-11T01:34:37.646Z,-0.16
2023-01-11T01:36:35.824Z,-0.20
2023-01-11T01:38:34.231Z,-0.21
2023-01-11T01:40:32.366Z,-0.16
2023-01-11T01:42:30.665Z,-0.18
2023-01-11T01:45:01.475Z,-0.18
2023-01-11T01:46:59.841Z,-0.22
2023-01-11T01:49:01.736Z,-0.26
2023-01-11T01:51:01.611Z,-0.27
2023-01-11T01:53:03.544Z,-0.30
2023-01-11T01:55:07.528Z,-0.34
2023-01-11T01:57:11.983Z,-0.32
2023-01-11T01:59:14.092Z,-0.31
2023-01-11T02:01:32.444Z,-0.29
2023-01-11T02:03:30.880Z,-0.26
2023-01-11T02:05:29.595Z,-0.21
2023-01-11T02:07:33.292Z,-0.18
2023-01-11T02:09:37.767Z,-0.14
2023-01-11T02:11:43.322Z,-0.12
2023-01-11T02:13:46.181Z,-0.10
2023-01-11T02:15:44.764Z,-0.10
2023-01-11T02:17:43.162Z,-0.07
2023-01-11T02:19:55.266Z,0.01
2023-01-11T02:22:14.404Z,0.07
2023-01-11T02:24:36.441Z,0.09
2023-01-11T02:27:13.851Z,0.11
2023-01-11T02:29:17.828Z,0.13
2023-01-11T02:31:27.268Z,0.44
2023-01-11T02:33:37.504Z,0.58
2023-01-11T02:35:46.516Z,0.43
2023-01-11T02:37:55.335Z,0.35
2023-01-11T02:40:04.367Z,0.30
2023-01-11T02:42:26.918Z,0.31
2023-01-11T02:44:51.210Z,0.30
2023-01-11T02:46:54.722Z,0.31
2023-01-11T02:49:00.931Z,0.31
2023-01-11T02:51:06.075Z,0.30
2023-01-11T02:53:10.896Z,0.27
2023-01-11T02:55:13.737Z,0.29
2023-01-11T02:57:13.130Z,0.32
2023-01-11T02:59:15.406Z,0.32
2023-01-11T03:01:15.703Z,0.30
2023-01-11T03:03:18.302Z,0.34
2023-01-11T03:05:16.699Z,0.40
2023-01-11T03:07:40.675Z,0.36
2023-01-11T03:09:52.847Z,0.40
2023-01-11T03:12:27.591Z,0.40
2023-01-11T03:14:30.316Z,0.38
2023-01-11T03:16:37.570Z,0.40
2023-01-11T03:18:46.206Z,0.38
2023-01-11T03:20:51.175Z,0.37
2023-01-11T03:23:01.121Z,0.39
2023-01-11T03:25:10.587Z,0.43
2023-01-11T03:27:20.405Z,0.39
2023-01-11T03:29:29.777Z,0.42
2023-01-11T03:31:35.551Z,0.43
2023-01-11T03:33:39.540Z,0.44
2023-01-11T03:35:43.876Z,0.48
2023-01-11T03:37:45.458Z,0.49
2023-01-11T03:39:47.645Z,0.50
2023-01-11T03:41:47.260Z,0.53
2023-01-11T03:43:47.834Z,0.52
2023-01-11T03:45:51.049Z,0.48
2023-01-11T03:47:53.901Z,0.51
2023-01-11T03:49:55.864Z,0.50
2023-01-11T03:51:57.708Z,0.50
2023-01-11T03:53:59.963Z,0.51
2023-01-11T03:56:00.305Z,0.56
2023-01-11T03:57:59.482Z,0.58
2023-01-11T03:59:58.289Z,0.57
2023-01-11T04:01:57.606Z,0.57
2023-01-11T04:03:57.185Z,0.60
2023-01-11T04:05:59.906Z,0.58
2023-01-11T04:07:58.203Z,0.60
2023-01-11T04:09:57.125Z,0.59
2023-01-11T04:11:55.423Z,0.60
2023-01-11T04:13:53.741Z,0.61
2023-01-11T04:15:54.037Z,0.64
2023-01-11T04:17:52.331Z,0.67
2023-01-11T04:19:52.206Z,0.68
2023-01-11T04:21:50.612Z,0.66
2023-01-11T04:23:49.884Z,0.69
2023-01-11T04:25:48.505Z,0.67
2023-01-11T04:27:46.811Z,0.68
2023-01-11T04:29:45.148Z,0.68
2023-01-11T04:31:43.527Z,0.64
2023-01-11T04:33:41.705Z,0.67
2023-01-11T04:35:42.031Z,0.74
2023-01-11T04:37:40.450Z,0.73
2023-01-11T04:39:38.843Z,0.74
2023-01-11T04:41:54.585Z,0.74
2023-01-11T04:43:56.400Z,0.75
2023-01-11T04:45:59.780Z,0.72
2023-01-11T04:47:58.946Z,0.71
2023-01-11T04:49:57.158Z,0.75
2023-01-11T04:51:56.670Z,0.73
2023-01-11T04:53:54.968Z,0.75
2023-01-11T04:55:53.680Z,0.77
2023-01-11T04:57:52.152Z,0.82
2023-01-11T04:59:50.608Z,0.87
2023-01-11T05:01:48.813Z,0.90
2023-01-11T05:03:47.650Z,0.93
2023-01-11T05:05:45.855Z,0.90
2023-01-11T05:07:45.566Z,0.87
2023-01-11T05:09:43.988Z,0.87
2023-01-11T05:11:42.316Z,0.83
2023-01-11T05:13:43.684Z,0.82
2023-01-11T05:15:42.109Z,0.84
2023-01-11T05:17:40.297Z,0.87
2023-01-11T05:19:38.777Z,0.83
2023-01-11T05:21:39.242Z,0.80
2023-01-11T05:23:39.027Z,0.78
2023-01-11T05:25:37.201Z,0.77
2023-01-11T05:27:35.318Z,0.79
2023-01-11T05:29:33.663Z,0.81
2023-01-11T05:31:32.860Z,0.82
2023-01-11T05:33:31.229Z,0.83
2023-01-11T05:35:29.380Z,0.86
2023-01-11T05:37:27.405Z,0.85
2023-01-11T05:39:27.364Z,0.86
2023-01-11T05:41:27.618Z,0.91
2023-01-11T05:43:26.584Z,0.91
2023-01-11T05:45:29.371Z,0.96
2023-01-11T05:47:27.710Z,0.94
2023-01-11T05:49:26.335Z,0.93
2023-01-11T05:51:24.653Z,0.94
2023-01-11T05:53:24.001Z,0.93
2023-01-11T05:55:23.726Z,0.94
2023-01-11T05:57:21.893Z,0.93
2023-01-11T05:59:20.431Z,0.91
2023-01-11T06:01:19.818Z,0.88
2023-01-11T06:03:18.059Z,0.84
2023-01-11T06:05:16.684Z,0.80
2023-01-11T06:07:14.959Z,0.77
2023-01-11T06:09:13.384Z,0.77
2023-01-11T06:11:13.090Z,0.84
2023-01-11T06:13:29.520Z,0.86
2023-01-11T06:15:27.857Z,0.90
2023-01-11T06:17:26.128Z,0.93
2023-01-11T06:19:24.561Z,0.98
2023-01-11T06:21:24.216Z,1.03
2023-01-11T06:23:23.566Z,1.17
2023-01-11T06:25:21.839Z,1.41
2023-01-11T06:27:21.383Z,1.63
2023-01-11T06:29:19.821Z,1.64
2023-01-11T06:31:18.758Z,1.76
2023-01-11T06:33:17.069Z,1.90
2023-01-11T06:35:15.576Z,2.36
2023-01-11T06:37:13.777Z,2.74
2023-01-11T06:39:11.950Z,2.96
2023-01-11T06:41:10.654Z,2.90
2023-01-11T06:43:11.144Z,2.79
2023-01-11T06:45:13.320Z,2.61
2023-01-11T06:47:11.509Z,2.50
2023-01-11T06:49:09.891Z,2.39
2023-01-11T06:51:11.072Z,2.26
2023-01-11T06:53:09.390Z,2.29
2023-01-11T06:55:11.587Z,2.24
2023-01-11T06:57:09.847Z,2.16
2023-01-11T06:59:09.485Z,2.17
2023-01-11T07:01:07.999Z,2.25
2023-01-11T07:03:07.398Z,2.24
2023-01-11T07:05:06.533Z,2.31
2023-01-11T07:07:05.050Z,2.37
2023-01-11T07:09:03.253Z,2.51
2023-01-11T07:11:01.537Z,2.58
2023-01-11T07:12:59.843Z,2.77
2023-01-11T07:14:59.533Z,2.98
2023-01-11T07:16:57.789Z,3.17
2023-01-11T07:18:56.085Z,3.17
2023-01-11T07:20:57.051Z,3.21
2023-01-11T07:22:59.410Z,3.12
2023-01-11T07:24:57.772Z,3.00
2023-01-11T07:26:56.351Z,2.93
2023-01-11T07:28:54.680Z,2.89
2023-01-11T07:30:59.516Z,2.85
2023-01-11T07:32:59.688Z,2.84
2023-01-11T07:34:57.889Z,2.82
2023-01-11T07:36:56.056Z,2.80
2023-01-11T07:38:54.256Z,2.90
2023-01-11T07:40:52.556Z,2.94
2023-01-11T07:43:09.102Z,2.93
2023-01-11T07:45:09.195Z,3.07
2023-01-11T07:47:09.049Z,3.27
2023-01-11T07:49:07.260Z,3.40
2023-01-11T07:51:05.540Z,3.57
2023-01-11T07:53:03.733Z,3.83
2023-01-11T07:55:02.862Z,3.93
2023-01-11T07:57:01.399Z,4.00
2023-01-11T07:58:59.719Z,3.95
2023-01-11T08:01:00.693Z,3.94
2023-01-11T08:03:01.874Z,4.06
2023-01-11T08:05:02.235Z,4.10
2023-01-11T08:07:01.567Z,4.04
2023-01-11T08:09:02.567Z,4.20
2023-01-11T08:11:20.799Z,4.21
2023-01-11T08:13:38.488Z,4.13
2023-01-11T08:15:37.443Z,4.23
2023-01-11T08:17:35.940Z,4.12
2023-01-11T08:19:35.567Z,4.00
2023-01-11T08:21:33.891Z,3.88
2023-01-11T08:23:32.235Z,3.79
2023-01-11T08:25:30.369Z,3.86
2023-01-11T08:27:28.821Z,3.85
2023-01-11T08:29:27.325Z,3.84
2023-01-11T08:31:26.412Z,3.91
2023-01-11T08:33:24.931Z,4.01
2023-01-11T08:35:25.017Z,4.13
2023-01-11T08:37:23.343Z,4.51
2023-01-11T08:39:21.599Z,4.65
2023-01-11T08:41:19.911Z,4.71
2023-01-11T08:43:18.171Z,5.03
2023-01-11T08:45:18.808Z,5.23
2023-01-11T08:47:18.703Z,5.52
2023-01-11T08:49:16.976Z,5.26
2023-01-11T08:51:18.197Z,5.03
2023-01-11T08:53:16.854Z,5.02
2023-01-11T08:55:15.496Z,5.15
2023-01-11T08:57:13.786Z,5.45
2023-01-11T08:59:12.516Z,5.79
2023-01-11T09:01:12.158Z,5.84
2023-01-11T09:03:11.989Z,5.97
2023-01-11T09:05:10.924Z,6.78
2023-01-11T09:07:10.725Z,7.55
2023-01-11T09:09:09.001Z,9.41
2023-01-11T09:11:27.281Z,11.41
2023-01-11T09:13:25.784Z,13.13
2023-01-11T09:15:24.085Z,13.61
2023-01-11T09:17:22.300Z,14.40
2023-01-11T09:19:20.696Z,16.12
2023-01-11T09:21:19.836Z,15.86
2023-01-11T09:23:19.810Z,15.09
2023-01-11T09:25:18.472Z,14.90
2023-01-11T09:27:17.320Z,13.12
2023-01-11T09:29:15.479Z,11.17
2023-01-11T09:31:13.859Z,9.77
2023-01-11T09:33:12.482Z,8.94
2023-01-11T09:35:11.610Z,8.06
2023-01-11T09:37:10.074Z,7.07
2023-01-11T09:39:14.711Z,6.69
2023-01-11T09:41:32.390Z,6.33
2023-01-11T09:43:31.724Z,6.03
2023-01-11T09:45:32.696Z,6.05
2023-01-11T09:47:39.295Z,5.67
2023-01-11T09:49:41.941Z,5.48
2023-01-11T09:51:41.500Z,5.57
2023-01-11T09:53:42.044Z,5.79
2023-01-11T09:55:43.970Z,5.76
2023-01-11T09:57:52.156Z,5.70
2023-01-11T09:59:57.199Z,5.74
2023-01-11T10:02:05.409Z,5.87
2023-01-11T10:04:37.752Z,5.95
2023-01-11T10:06:46.554Z,6.20
2023-01-11T10:18:29.797Z,6.20
2023-01-11T10:18:30.653Z,6.22
2023-01-11T10:21:33.527Z,5.91
2023-01-11T10:23:41.871Z,5.52
2023-01-11T10:25:50.449Z,5.52
2023-01-11T10:27:56.904Z,5.64
2023-01-11T10:30:12.912Z,5.72
2023-01-11T10:32:53.304Z,5.98
2023-01-11T10:35:17.836Z,6.37
2023-01-11T10:37:36.305Z,6.19
2023-01-11T10:39:59.222Z,6.47
2023-01-11T10:42:07.943Z,6.32
2023-01-11T10:44:19.103Z,6.28
2023-01-11T10:46:21.573Z,5.88
2023-01-11T10:48:26.899Z,5.60
2023-01-11T10:50:33.453Z,5.47
2023-01-11T10:52:41.618Z,5.50
2023-01-11T10:54:46.815Z,5.67
2023-01-11T10:57:08.157Z,5.76
2023-01-11T10:59:22.227Z,5.51
2023-01-11T11:01:33.124Z,5.63
2023-01-11T11:03:55.917Z,5.47
2023-01-11T11:06:02.418Z,5.43
2023-01-11T11:08:10.026Z,5.78
2023-01-11T11:10:16.053Z,5.79
2023-01-11T11:12:20.559Z,5.60
2023-01-11T11:14:30.052Z,5.61
2023-01-11T11:16:42.493Z,5.81
2023-01-11T11:18:40.846Z,5.53
2023-01-11T11:20:39.255Z,5.66
2023-01-11T11:22:37.488Z,5.72
2023-01-11T11:24:40.282Z,5.77
2023-01-11T11:26:41.876Z,5.96
2023-01-11T11:28:59.924Z,6.09
2023-01-11T11:31:02.977Z,6.04
2023-01-11T11:33:03.885Z,5.83
2023-01-11T11:35:02.162Z,6.19
2023-01-11T11:37:01.924Z,6.59
2023-01-11T11:39:10.540Z,6.73
2023-01-11T11:41:11.475Z,6.74
2023-01-11T11:43:20.651Z,6.32
2023-01-11T11:45:19.320Z,5.82
2023-01-11T11:47:19.091Z,5.51
2023-01-11T11:49:18.651Z,5.26
2023-01-11T11:51:23.504Z,5.14
2023-01-11T11:53:38.638Z,5.18
2023-01-11T11:55:37.021Z,5.09
2023-01-11T11:57:41.175Z,5.01
2023-01-11T11:59:39.581Z,4.97
2023-01-11T12:01:40.862Z,4.78
2023-01-11T12:03:44.958Z,4.79
2023-01-11T12:05:52.448Z,4.72
2023-01-11T12:07:55.585Z,4.72
2023-01-11T12:10:00.333Z,4.58
2023-01-11T12:11:58.849Z,4.45
2023-01-11T12:14:07.665Z,4.47
2023-01-11T12:16:08.164Z,4.56
2023-01-11T12:18:24.908Z,4.64
2023-01-11T12:20:36.080Z,4.61
2023-01-11T12:22:34.250Z,4.59
2023-01-11T12:24:34.044Z,4.64
2023-01-11T12:26:38.537Z,4.53
2023-01-11T12:29:04.087Z,4.49
2023-01-11T12:31:09.816Z,4.49
2023-01-11T12:33:26.832Z,4.46
2023-01-11T12:35:35.637Z,4.66
2023-01-11T12:37:53.312Z,4.73
2023-01-11T12:39:57.343Z,4.76
2023-01-11T12:42:15.695Z,4.92
2023-01-11T12:44:23.457Z,5.10
2023-01-11T12:46:30.937Z,5.00
2023-01-11T12:48:42.347Z,5.04
2023-01-11T12:50:57.179Z,5.19
2023-01-11T12:53:01.676Z,4.86
2023-01-11T12:55:20.617Z,4.67
2023-01-11T12:57:27.315Z,4.84
2023-01-11T12:59:46.771Z,4.88
2023-01-11T13:01:56.312Z,4.85
2023-01-11T13:04:26.868Z,4.74
2023-01-11T13:06:35.665Z,4.70
2023-01-11T13:08:49.096Z,4.75
2023-01-11T13:11:00.492Z,4.62
2023-01-11T13:13:06.673Z,4.55
2023-01-11T13:15:21.248Z,4.59
2023-01-11T13:17:30.055Z,4.58
2023-01-11T13:19:38.111Z,4.52
2023-01-11T13:21:44.519Z,4.56
2023-01-11T13:23:47.291Z,4.47
2023-01-11T13:25:49.351Z,4.49
2023-01-11T13:27:49.797Z,4.69
2023-01-11T13:29:51.157Z,4.72
2023-01-11T13:31:51.355Z,4.72
2023-01-11T13:33:55.021Z,4.91
2023-01-11T13:35:58.919Z,4.87
2023-01-11T13:38:02.751Z,4.76
2023-01-11T13:40:10.050Z,4.68
2023-01-11T13:42:22.858Z,4.68
2023-01-11T13:44:25.391Z,4.69
2023-01-11T13:46:43.532Z,4.65
2023-01-11T13:48:46.599Z,4.70
2023-01-11T13:50:54.632Z,4.76
2023-01-11T13:53:07.056Z,4.75
2023-01-11T13:55:20.844Z,4.67
2023-01-11T13:57:34.916Z,4.74
2023-01-11T13:59:37.908Z,4.71
2023-01-11T14:01:46.662Z,4.60
2023-01-11T14:03:51.054Z,4.66
2023-01-11T14:05:52.414Z,4.60
2023-01-11T14:08:02.599Z,4.49
2023-01-11T14:10:18.926Z,4.40
2023-01-11T14:12:27.797Z,4.40
2023-01-11T14:14:51.891Z,4.21
2023-01-11T14:17:15.963Z,4.13
2023-01-11T14:19:21.854Z,4.05
2023-01-11T14:21:27.466Z,4.00
2023-01-11T14:23:32.596Z,3.92
2023-01-11T14:25:45.361Z,3.82
2023-01-11T14:28:15.446Z,3.75
2023-01-11T14:30:30.038Z,3.72
2023-01-11T14:32:51.205Z,3.67
2023-01-11T14:35:22.273Z,3.66
2023-01-11T14:37:46.902Z,3.66
2023-01-11T14:40:04.801Z,3.67
2023-01-11T14:42:31.183Z,3.63
2023-01-11T14:44:49.719Z,3.61
2023-01-11T14:47:02.632Z,3.56
2023-01-11T14:49:13.547Z,3.52
2023-01-11T14:51:32.610Z,3.50
2023-01-11T14:53:38.344Z,3.46
2023-01-11T14:55:45.066Z,3.40
2023-01-11T14:58:00.708Z,3.40
2023-01-11T14:59:59.137Z,3.40
2023-01-11T15:02:25.761Z,3.53
2023-01-11T15:04:24.221Z,3.46
2023-01-11T15:06:22.864Z,3.51
2023-01-11T15:08:25.645Z,3.52
2023-01-11T15:10:50.795Z,3.57
2023-01-11T15:12:50.701Z,3.54
2023-01-11T15:14:51.211Z,3.45
2023-01-11T15:17:10.206Z,3.37
2023-01-11T15:19:13.284Z,3.32
2023-01-11T15:21:16.658Z,3.25
2023-01-11T15:23:18.573Z,3.18
2023-01-11T15:25:23.925Z,3.15
2023-01-11T15:27:26.973Z,3.11
2023-01-11T15:29:29.401Z,3.08
2023-01-11T15:31:34.523Z,3.04
2023-01-11T15:33:47.196Z,3.09
2023-01-11T15:36:04.019Z,3.09
2023-01-11T15:38:08.884Z,3.08
2023-01-11T15:40:17.915Z,3.00
2023-01-11T15:43:04.463Z,3.05
2023-01-11T15:45:28.820Z,3.11
2023-01-11T15:47:44.987Z,3.16
2023-01-11T15:50:32.072Z,3.04
2023-01-11T15:53:07.134Z,3.00
2023-01-11T15:55:30.214Z,2.96
2023-01-11T15:58:06.194Z,2.89
2023-01-11T16:00:21.248Z,2.86
2023-01-11T16:03:03.969Z,2.82
2023-01-11T16:05:14.395Z,2.71
2023-01-11T16:07:26.662Z,2.70
2023-01-11T16:10:02.498Z,2.70
2023-01-11T16:12:16.417Z,2.80
2023-01-11T16:14:42.665Z,2.82
2023-01-11T16:16:43.828Z,2.88
2023-01-11T16:18:57.165Z,2.92
2023-01-11T16:21:03.565Z,3.00
2023-01-11T16:23:10.350Z,2.93
2023-01-11T16:25:15.342Z,2.77
2023-01-11T16:27:22.892Z,2.68
2023-01-11T16:29:23.842Z,2.61
2023-01-11T16:31:22.319Z,2.64
2023-01-11T16:33:26.591Z,2.81
2023-01-11T16:35:27.101Z,2.88
2023-01-11T16:37:30.595Z,2.88
2023-01-11T16:39:33.740Z,2.82
2023-01-11T16:41:42.435Z,2.76
2023-01-11T16:43:48.207Z,2.72
2023-01-11T16:45:48.683Z,2.64
2023-01-11T16:48:05.997Z,2.61
2023-01-11T16:50:19.812Z,2.60
2023-01-11T16:52:51.330Z,2.59
2023-01-11T16:54:49.716Z,2.57
2023-01-11T16:56:49.571Z,2.60
2023-01-11T16:59:06.691Z,2.60
2023-01-11T17:01:07.181Z,2.58
2023-01-11T17:03:30.648Z,2.55
2023-01-11T17:05:29.207Z,2.57
2023-01-11T17:07:29.992Z,2.68
2023-01-11T17:09:30.045Z,2.76
2023-01-11T17:11:33.036Z,2.85
2023-01-11T17:13:59.347Z,2.93
2023-01-11T17:16:03.977Z,2.95
2023-01-11T17:18:04.136Z,2.91
2023-01-11T17:20:02.666Z,2.91
2023-01-11T17:22:05.748Z,2.78
2023-01-11T17:24:06.404Z,2.71
2023-01-11T17:26:09.010Z,2.64
2023-01-11T17:28:19.005Z,2.61
2023-01-11T17:30:19.737Z,2.54
2023-01-11T17:32:23.781Z,2.57
2023-01-11T17:34:27.974Z,2.52
2023-01-11T17:36:26.901Z,2.45
2023-01-11T17:38:27.323Z,2.49
2023-01-11T17:40:29.547Z,2.49
2023-01-11T17:42:46.858Z,2.46
2023-01-11T17:45:06.541Z,2.48
2023-01-11T17:47:10.163Z,2.55
2023-01-11T17:49:22.582Z,2.65
2023-01-11T17:51:26.574Z,2.72
2023-01-11T17:53:26.998Z,2.80
2023-01-11T17:55:26.661Z,2.84
2023-01-11T17:57:24.956Z,2.80
2023-01-11T17:59:27.161Z,2.79
2023-01-11T18:01:26.528Z,2.76
2023-01-11T18:03:25.187Z,2.72
2023-01-11T18:05:28.034Z,2.78
2023-01-11T18:07:26.628Z,2.81
2023-01-11T18:09:29.091Z,2.78
2023-01-11T18:11:29.347Z,2.77
2023-01-11T18:13:34.170Z,2.82
2023-01-11T18:15:35.810Z,2.83
2023-01-11T18:17:39.354Z,2.77
2023-01-11T18:19:41.381Z,2.63
2023-01-11T18:21:42.325Z,2.59
2023-01-11T18:23:40.883Z,2.57
2023-01-11T18:25:40.542Z,2.52
2023-01-11T18:27:38.998Z,2.51
2023-01-11T18:29:51.397Z,2.50
2023-01-11T18:31:51.331Z,2.46
2023-01-11T18:33:49.700Z,2.44
2023-01-11T18:35:50.466Z,2.43
2023-01-11T18:37:49.175Z,2.43
2023-01-11T18:39:47.517Z,2.43
2023-01-11T18:42:04.011Z,2.38
2023-01-11T18:44:02.702Z,2.36
2023-01-11T18:46:01.213Z,2.37
2023-01-11T18:48:01.157Z,2.51
2023-01-11T18:49:59.723Z,2.58
2023-01-11T18:51:58.432Z,2.66
2023-01-11T18:53:57.161Z,2.76
2023-01-11T18:55:55.786Z,2.75
2023-01-11T18:57:54.576Z,2.74
2023-01-11T18:59:54.475Z,2.68
2023-01-11T19:02:01.442Z,2.63
2023-01-11T19:04:11.774Z,2.52
2023-01-11T19:06:13.205Z,2.45
2023-01-11T19:08:11.767Z,2.32
2023-01-11T19:10:11.818Z,2.24
2023-01-11T19:12:10.354Z,2.23
2023-01-11T19:14:10.927Z,2.23
2023-01-11T19:16:10.008Z,2.21
2023-01-11T19:18:08.373Z,2.20
2023-01-11T19:20:14.388Z,2.23
2023-01-11T19:22:13.957Z,2.22
2023-01-11T19:24:12.579Z,2.29
2023-01-11T19:26:10.918Z,2.34
2023-01-11T19:28:09.342Z,2.43
2023-01-11T19:30:12.174Z,2.38
2023-01-11T19:32:11.282Z,2.44
2023-01-11T19:34:09.548Z,2.44
2023-01-11T19:36:10.805Z,2.37
2023-01-11T19:38:08.957Z,2.33
2023-01-11T19:40:11.280Z,2.30
2023-01-11T19:42:09.831Z,2.27
2023-01-11T19:44:08.186Z,2.24
2023-01-11T19:46:06.722Z,2.12
2023-01-11T19:48:05.570Z,2.08
2023-01-11T19:50:04.388Z,2.05
2023-01-11T19:52:04.344Z,2.05
2023-01-11T19:54:02.694Z,2.04
2023-01-11T19:56:02.277Z,2.10
2023-01-11T19:58:02.682Z,2.11
2023-01-11T20:00:01.073Z,2.09
2023-01-11T20:01:59.944Z,2.04
2023-01-11T20:03:59.538Z,2.00
2023-01-11T20:06:07.794Z,1.98
2023-01-11T20:08:07.628Z,2.01
2023-01-11T20:10:12.191Z,1.99
2023-01-11T20:12:12.643Z,1.98
2023-01-11T20:14:11.091Z,1.92
2023-01-11T20:16:12.384Z,1.88
2023-01-11T20:18:11.142Z,1.95
2023-01-11T20:20:12.140Z,2.02
2023-01-11T20:22:11.616Z,2.07
2023-01-11T20:24:14.037Z,2.07
2023-01-11T20:26:15.267Z,1.97
2023-01-11T20:28:13.819Z,1.91
2023-01-11T20:30:13.248Z,1.91
2023-01-11T20:32:31.505Z,1.95
2023-01-11T20:34:30.566Z,1.92
2023-01-11T20:36:29.255Z,1.92
2023-01-11T20:38:27.448Z,1.87
2023-01-11T20:40:27.010Z,1.91
2023-01-11T20:42:25.304Z,1.91
2023-01-11T20:44:25.653Z,1.91
2023-01-11T20:46:24.036Z,1.90
2023-01-11T20:48:23.228Z,1.87
2023-01-11T20:50:21.482Z,1.80
2023-01-11T20:52:20.050Z,1.76
2023-01-11T20:54:19.544Z,1.80
2023-01-11T20:56:19.849Z,1.82
2023-01-11T20:58:18.136Z,1.78
2023-01-11T21:00:17.358Z,1.79
2023-01-11T21:02:15.828Z,1.74
2023-01-11T21:04:14.724Z,1.73
2023-01-11T21:06:15.483Z,1.72
2023-01-11T21:08:13.860Z,1.75
2023-01-11T21:10:12.906Z,1.75
2023-01-11T21:12:12.613Z,1.74
2023-01-11T21:14:12.224Z,1.74
2023-01-11T21:16:12.858Z,1.76
2023-01-11T21:18:11.017Z,1.78
2023-01-11T21:20:12.674Z,1.80
2023-01-11T21:22:10.791Z,1.81
2023-01-11T21:24:10.237Z,1.78
2023-01-11T21:26:13.049Z,1.74
2023-01-11T21:28:12.753Z,1.75
2023-01-11T21:30:12.307Z,1.69
2023-01-11T21:32:10.393Z,1.68
2023-01-11T21:34:09.360Z,1.69
2023-01-11T21:36:09.899Z,1.70
2023-01-11T21:38:08.422Z,1.71
2023-01-11T21:40:11.822Z,1.69
2023-01-11T21:42:10.266Z,1.67
2023-01-11T21:44:10.704Z,1.68
2023-01-11T21:46:09.679Z,1.72
2023-01-11T21:48:11.140Z,1.70
2023-01-11T21:50:11.806Z,1.71
2023-01-11T21:52:10.079Z,1.65
2023-01-11T21:54:11.565Z,1.63
2023-01-11T21:56:09.966Z,1.62
2023-01-11T21:58:08.508Z,1.71
2023-01-11T22:00:12.812Z,1.71
2023-01-11T22:02:11.297Z,1.68
2023-01-11T22:04:10.948Z,1.67
2023-01-11T22:06:09.563Z,1.63
2023-01-11T22:08:07.959Z,1.58
2023-01-11T22:10:07.446Z,1.61
2023-01-11T22:12:06.010Z,1.64
2023-01-11T22:14:06.590Z,1.64
2023-01-11T22:16:08.511Z,1.62
2023-01-11T22:18:08.048Z,1.59
2023-01-11T22:20:10.288Z,1.56
2023-01-11T22:22:08.644Z,1.51
2023-01-11T22:24:10.261Z,1.50
2023-01-11T22:26:10.344Z,1.46
2023-01-11T22:28:08.558Z,1.41
2023-01-11T22:30:08.827Z,1.40
2023-01-11T22:32:08.515Z,1.43
2023-01-11T22:34:07.778Z,1.46
2023-01-11T22:36:07.175Z,1.49
2023-01-11T22:38:05.687Z,1.48
2023-01-11T22:40:04.143Z,1.47
2023-01-11T22:42:02.311Z,1.43
2023-01-11T22:44:00.732Z,1.41
2023-01-11T22:45:59.448Z,1.39
2023-01-11T22:48:01.070Z,1.34
2023-01-11T22:49:59.505Z,1.36
2023-01-11T22:51:58.020Z,1.50
2023-01-11T22:53:57.411Z,1.60
2023-01-11T22:55:55.983Z,1.64
2023-01-11T22:57:55.064Z,1.82
2023-01-11T22:59:53.555Z,1.77
2023-01-11T23:01:51.919Z,1.73
2023-01-11T23:03:52.823Z,1.72
2023-01-11T23:05:54.604Z,1.64
2023-01-11T23:07:52.858Z,1.54
2023-01-11T23:09:51.179Z,1.42
2023-01-11T23:12:07.349Z,1.41
2023-01-11T23:14:08.310Z,1.36
2023-01-11T23:16:07.537Z,1.34
2023-01-11T23:18:06.465Z,1.40
2023-01-11T23:20:12.906Z,1.48
2023-01-11T23:22:16.989Z,1.50
2023-01-11T23:24:16.732Z,1.62
2023-01-11T23:26:18.021Z,1.72
2023-01-11T23:28:16.766Z,1.69
2023-01-11T23:30:15.449Z,1.69
2023-01-11T23:32:14.105Z,1.62
2023-01-11T23:34:13.182Z,1.60
2023-01-11T23:36:12.881Z,1.57
2023-01-11T23:38:11.268Z,1.49
2023-01-11T23:40:11.829Z,1.53
2023-01-11T23:42:28.286Z,1.52
2023-01-11T23:44:26.651Z,1.52
2023-01-11T23:46:42.878Z,1.58
2023-01-11T23:48:41.191Z,1.60
2023-01-11T23:50:39.392Z,1.58
2023-01-11T23:52:38.968Z,1.59
2023-01-11T23:54:37.337Z,1.66
2023-01-11T23:56:36.087Z,1.54
2023-01-11T23:58:34.133Z,1.55
